Bow Lima — 3EMG9 — position and weather

sailwx.info

Track history (hours):
 
Tides and Currents Weather Stations Pressure Air Temp Water Temp Dewpoint Dewpoint Depression Visibility Wind Speed Wind Dir Waves Ship Positions

Bow Lima

Last reported at 2017-Sep-12 07:41 UTC. Time now 2017-Sep-24 17:30 UTC.
Position N 30°33' E 032°19'.
Warning: this ship's position is 12 days out of date.

Length 144 m; draft 10 m.

Type: Ship (hazmat cat A). MMSI: 353610000.

Date/timePositionNaut miles runAvg speedWind from/ knotsBaromVisibWave heightAir tempDewpointWater temp
2017-Sep-12 07:41N 30°33' E 032°19'1 8.2
2017-Sep-12 07:30N 30°34' E 032°18'3 7.0
2017-Sep-12 07:00N 30°38' E 032°20'5 8.5
2017-Sep-12 06:27N 30°42' E 032°21'4 8.8
2017-Sep-12 05:58N 30°46' E 032°19'4 8.8
2017-Sep-12 05:30N 30°50' E 032°19'4 8.5
2017-Sep-12 05:00N 30°55' E 032°19'4 8.5
2017-Sep-12 04:30N 30°59' E 032°19'5 9.1
2017-Sep-12 04:00N 31°03' E 032°19'5 9.0
2017-Sep-12 03:31N 31°08' E 032°19'4 8.9
2017-Sep-12 03:00N 31°12' E 032°20'4 8.4
2017-Sep-12 02:30N 31°16' E 032°21'510.9
2017-Sep-12 02:00N 31°21' E 032°23'4 7.2
2017-Sep-12 01:30N 31°25' E 032°24'3 6.5
2017-Sep-12 01:00N 31°28' E 032°23'4 7.1
2017-Sep-12 00:30N 31°28' E 032°19'0 0.2
2017-Sep-11 23:58N 31°28' E 032°19'0 0.2
2017-Sep-11 23:28N 31°28' E 032°19'0 0.0
2017-Sep-11 21:37N 31°28' E 032°19'0 0.0
2017-Sep-11 21:28N 31°28' E 032°19'0 0.0
2017-Sep-11 20:49N 31°28' E 032°19'0 0.0
2017-Sep-11 20:28N 31°28' E 032°19'0 0.0
2017-Sep-11 19:43N 31°28' E 032°19'0 0.0
2017-Sep-11 19:25N 31°28' E 032°19'0 0.0
2017-Sep-11 18:55N 31°28' E 032°19'0 0.0
2017-Sep-11 18:10N 31°28' E 032°19'0 0.2
2017-Sep-11 17:59N 31°28' E 032°19'1 1.7
2017-Sep-11 17:24N 31°28' E 032°17'610.2
2017-Sep-11 16:50N 31°32' E 032°12'514.1
2017-Sep-11 16:30N 31°35' E 032°08'814.1
2017-Sep-11 15:55N 31°41' E 032°01'713.8
2017-Sep-11 15:23N 31°46' E 031°55'513.9
2017-Sep-11 15:00N 31°49' E 031°50'714.3
2017-Sep-11 14:30N 31°53' E 031°43'714.5
2017-Sep-11 14:00N 31°58' E 031°37'714.5
2017-Sep-11 13:30N 32°03' E 031°31'714.0
2017-Sep-11 13:00N 32°08' E 031°24'714.0
2017-Sep-11 12:30N 32°12' E 031°18'714.0
2017-Sep-11 12:01N 32°17' E 031°12'714.1
2017-Sep-11 11:30N 32°21' E 031°05'714.1
2017-Sep-11 11:00N 32°25' E 030°59'714.3
2017-Sep-11 10:31N 32°30' E 030°52'714.6
2017-Sep-11 10:00N 32°34' E 030°45'714.8
2017-Sep-11 09:30N 32°39' E 030°38'714.8
2017-Sep-11 09:00N 32°44' E 030°32'714.7
2017-Sep-11 08:30N 32°48' E 030°25'714.8
2017-Sep-11 08:00N 32°53' E 030°18'1015.3
2017-Sep-11 07:23N 32°59' E 030°09'615.4
2017-Sep-11 07:00N 33°02' E 030°04'816.0
2017-Sep-11 06:30N 33°07' E 029°56'917.2
2017-Sep-11 06:01N 33°13' E 029°48'917.6
2017-Sep-11 05:30N 33°19' E 029°40'1117.7
2017-Sep-11 04:53N 33°26' E 029°30'717.6
2017-Sep-11 04:30N 33°30' E 029°24'917.4
2017-Sep-11 04:00N 33°36' E 029°16'9417.5
2017-Sep-10 22:37N 34°35' E 027°47'217.1
2017-Sep-10 22:29N 34°36' E 027°45'4216.8
2017-Sep-10 20:00N 35°02' E 027°05'11617.7
2017-Sep-10 13:27N 36°05' E 025°06'2018.1
2017-Sep-10 12:21N 36°16' E 024°46'617.9
2017-Sep-10 12:00N 36°19' E 024°39'1218.0
2017-Sep-10 11:19N 36°26' E 024°26'5317.5
2017-Sep-10 08:18N 37°13' E 023°55'1017.7
2017-Sep-10 07:44N 37°22' E 023°52'517.7
2017-Sep-10 07:26N 37°27' E 023°49'817.8
2017-Sep-10 07:00N 37°34' E 023°45'917.9
2017-Sep-10 06:30N 37°42' E 023°41'816.8
2017-Sep-10 06:01N 37°50' E 023°36'713.1
2017-Sep-10 05:31N 37°57' E 023°36'1 2.7
2017-Sep-10 04:59N 37°57' E 023°35'0 0.1
2017-Sep-10 04:29N 37°57' E 023°35'0 0.0
2017-Sep-10 03:59N 37°57' E 023°35'0 0.0
2017-Sep-10 03:29N 37°57' E 023°35'0 0.0
2017-Sep-10 02:59N 37°57' E 023°35'0 0.0
2017-Sep-10 02:29N 37°57' E 023°35'0 0.0
2017-Sep-10 01:59N 37°57' E 023°35'0 0.1
2017-Sep-10 01:29N 37°57' E 023°35'0 0.1
2017-Sep-10 00:59N 37°57' E 023°35'0 0.0
2017-Sep-10 00:29N 37°57' E 023°35'0 0.0
2017-Sep-09 23:59N 37°57' E 023°35'0 0.0
2017-Sep-09 23:29N 37°57' E 023°35'0 0.0
2017-Sep-09 22:59N 37°57' E 023°35'0 0.0
2017-Sep-09 22:29N 37°57' E 023°35'0 0.0
2017-Sep-09 21:59N 37°57' E 023°35'0 0.0
2017-Sep-09 21:29N 37°57' E 023°35'0 0.0
2017-Sep-09 20:59N 37°57' E 023°35'0 0.0
2017-Sep-09 20:29N 37°57' E 023°35'0 0.0
2017-Sep-09 19:56N 37°57' E 023°35'0 0.0
2017-Sep-09 19:29N 37°57' E 023°35'0 0.0
2017-Sep-09 18:59N 37°57' E 023°35'0 0.0
2017-Sep-09 18:29N 37°57' E 023°35'0 0.0
2017-Sep-09 17:59N 37°57' E 023°35'0 0.0
2017-Sep-09 17:29N 37°57' E 023°35'0 0.0
2017-Sep-09 16:59N 37°57' E 023°35'0 0.0
2017-Sep-09 16:29N 37°57' E 023°35'0 0.0
2017-Sep-09 15:59N 37°57' E 023°35'0 0.0
2017-Sep-09 15:29N 37°57' E 023°35'0 0.0
2017-Sep-09 14:59N 37°57' E 023°35'0 0.0
2017-Sep-09 14:29N 37°57' E 023°35'0 0.0
2017-Sep-09 13:59N 37°57' E 023°35'0 0.0
2017-Sep-09 13:29N 37°57' E 023°35'0 0.0
2017-Sep-09 13:00N 37°57' E 023°35'1 2.6
2017-Sep-09 12:30N 37°56' E 023°35'2 3.0
2017-Sep-09 12:00N 37°55' E 023°34'0 0.5
2017-Sep-09 11:30N 37°55' E 023°34'1 1.0
2017-Sep-09 11:00N 37°54' E 023°35'1 2.5
2017-Sep-09 10:30N 37°53' E 023°36'1 2.6
2017-Sep-09 10:00N 37°53' E 023°37'2 4.4
2017-Sep-09 09:30N 37°51' E 023°39'3 5.7
2017-Sep-09 09:00N 37°48' E 023°41'4 8.8
2017-Sep-09 08:30N 37°44' E 023°43'4 8.7
2017-Sep-09 08:00N 37°40' E 023°45'4 8.7
2017-Sep-09 07:30N 37°36' E 023°48'612.6
2017-Sep-09 07:00N 37°30' E 023°49'612.9
2017-Sep-09 06:30N 37°24' E 023°49'612.7
2017-Sep-09 06:00N 37°17' E 023°48'612.9
2017-Sep-09 05:30N 37°11' E 023°48'713.2
2017-Sep-09 04:58N 37°04' E 023°48'714.3
2017-Sep-09 04:30N 36°57' E 023°48'714.1
2017-Sep-09 04:00N 36°51' E 023°45'1014.2
2017-Sep-09 03:18N 36°42' E 023°39'514.1
2017-Sep-09 02:59N 36°37' E 023°37'714.0
2017-Sep-09 02:30N 36°32' E 023°33'714.2
2017-Sep-09 02:00N 36°25' E 023°30'39614.9
2017-Sep-07 23:29N 36°20' E 015°18'817.3
2017-Sep-07 23:00N 36°21' E 015°08'3188.2
2017-Sep-07 23:00N 36°18' E 015°06'816.4 230 / 101015.227.0 24.021.126.0
2017-Sep-07 22:30N 36°21' E 014°57'917.4
2017-Sep-07 22:00N 36°21' E 014°46'917.2
2017-Sep-07 21:30N 36°22' E 014°35'816.7
2017-Sep-07 21:00N 36°24' E 014°25'917.2
2017-Sep-07 20:30N 36°29' E 014°16'917.3
2017-Sep-07 20:00N 36°31' E 014°06'816.8
2017-Sep-07 19:30N 36°33' E 013°55'816.9
2017-Sep-07 19:00N 36°34' E 013°45'917.3
2017-Sep-07 18:30N 36°36' E 013°35'917.3
2017-Sep-07 18:00N 36°38' E 013°24'2147.2
2017-Sep-07 18:00N 36°36' E 013°24'919.1 270 / 81014.2 5.4 25.020.727.0
2017-Sep-07 17:30N 36°41' E 013°14'816.8
2017-Sep-07 17:00N 36°44' E 013°04'816.7
2017-Sep-07 16:30N 36°47' E 012°54'816.6
2017-Sep-07 16:00N 36°49' E 012°45'917.2
2017-Sep-07 15:30N 36°52' E 012°34'16717.6
2017-Sep-07 06:00N 37°36' E 009°12'10918.2 360 / 131016.527.0 23.021.627.0
2017-Sep-07 00:00N 37°36' E 006°54'10517.4 360 / 131019.727.0 24.021.128.0
2017-Sep-06 18:00N 37°36' E 004°42'2517.5 040 / 121018.8 5.4 26.020.227.0
2017-Sep-06 16:35N 37°35' E 004°11'117.4
2017-Sep-06 16:31N 37°36' E 004°09'917.4
2017-Sep-06 16:00N 37°36' E 003°58'817.4
2017-Sep-06 15:30N 37°35' E 003°47'1117.4
2017-Sep-06 14:54N 37°32' E 003°35'717.6
2017-Sep-06 14:30N 37°30' E 003°26'1317.8
2017-Sep-06 13:46N 37°26' E 003°10'517.8
2017-Sep-06 13:30N 37°25' E 003°05'917.9
2017-Sep-06 13:00N 37°23' E 002°54'918.2
2017-Sep-06 12:30N 37°20' E 002°43'918.3
2017-Sep-06 12:00N 37°17' E 002°32'918.2
2017-Sep-06 11:30N 37°16' E 002°21'917.7
2017-Sep-06 11:00N 37°13' E 002°10'917.4
2017-Sep-06 10:30N 37°11' E 001°59'817.2
2017-Sep-06 10:00N 37°09' E 001°49'917.0
2017-Sep-06 09:30N 37°07' E 001°39'817.1
2017-Sep-06 09:00N 37°05' E 001°28'817.0
2017-Sep-06 08:30N 37°03' E 001°18'816.9
2017-Sep-06 08:00N 37°00' E 001°08'917.4
2017-Sep-06 07:30N 36°58' E 000°58'917.8
2017-Sep-06 07:00N 36°55' E 000°47'917.9
2017-Sep-06 06:30N 36°52' E 000°36'917.5
2017-Sep-06 06:00N 36°49' E 000°26'2228.7
2017-Sep-06 06:00N 36°48' E 000°24'714.2 030 / 181020.6 5.4 23.021.626.0
2017-Sep-06 05:30N 36°46' E 000°16'917.8
2017-Sep-06 05:00N 36°43' E 000°05'917.7
2017-Sep-06 04:30N 36°41' W 000°05'917.3
2017-Sep-06 04:00N 36°38' W 000°16'917.4
2017-Sep-06 03:30N 36°37' W 000°26'917.3
2017-Sep-06 03:00N 36°34' W 000°37'917.4
2017-Sep-06 02:30N 36°32' W 000°47'917.8
2017-Sep-06 02:00N 36°30' W 000°58'918.3
2017-Sep-06 01:30N 36°28' W 001°09'918.3
2017-Sep-06 01:00N 36°25' W 001°20'918.2
2017-Sep-06 00:30N 36°22' W 001°30'918.2
2017-Sep-06 00:00N 36°18' W 001°41'4533.1
2017-Sep-06 00:00N 36°18' W 001°36'1326.5 030 / 161021.227.0 24.022.626.0
2017-Sep-05 23:30N 36°16' W 001°52'918.4
2017-Sep-05 23:00N 36°14' W 002°03'918.4
2017-Sep-05 22:30N 36°11' W 002°14'918.1
2017-Sep-05 22:00N 36°11' W 002°25'918.1
2017-Sep-05 21:30N 36°10' W 002°36'917.7
2017-Sep-05 21:00N 36°08' W 002°47'4916.4
2017-Sep-05 18:00N 36°06' W 003°48'5820.7 040 / 151020.5 5.4 25.023.623.0
2017-Sep-05 15:10N 36°00' W 004°60'419.3
2017-Sep-05 14:59N 36°00' W 005°04'918.4
2017-Sep-05 14:30N 35°59' W 005°15'1019.2
2017-Sep-05 14:00N 35°58' W 005°27'917.9
2017-Sep-05 13:30N 35°55' W 005°37'1117.5
2017-Sep-05 12:54N 35°55' W 005°50'1617.9
2017-Sep-05 12:01N 35°54' W 006°10'018.8
2017-Sep-05 12:00N 35°54' W 006°10'4918.8
2017-Sep-05 09:24N 36°04' W 007°09'918.1
2017-Sep-05 08:55N 36°07' W 007°19'717.8
2017-Sep-05 08:30N 36°08' W 007°28'917.8
2017-Sep-05 08:00N 36°10' W 007°39'917.9
2017-Sep-05 07:29N 36°12' W 007°50'1118.4
2017-Sep-05 06:53N 36°16' W 008°03'718.3
2017-Sep-05 06:29N 36°18' W 008°12'918.3
2017-Sep-05 05:59N 36°21' W 008°23'918.5
2017-Sep-05 05:28N 36°24' W 008°34'918.9
2017-Sep-05 04:59N 36°26' W 008°45'919.0
2017-Sep-05 04:30N 36°29' W 008°56'919.2
2017-Sep-05 04:01N 36°31' W 009°07'919.0
2017-Sep-05 03:31N 36°34' W 009°19'1019.7
2017-Sep-05 03:01N 36°42' W 009°26'1019.3
2017-Sep-05 02:30N 36°50' W 009°33'1019.5
2017-Sep-05 02:01N 36°59' W 009°36'1019.2
2017-Sep-05 01:31N 37°08' W 009°39'1019.5
2017-Sep-05 01:01N 37°18' W 009°42'1019.7
2017-Sep-05 00:30N 37°28' W 009°45'1019.5
2017-Sep-05 00:01N 37°37' W 009°48'155.3
2017-Sep-05 00:00N 37°36' W 009°48'1021.5 360 / 121022.227.0 19.019.020.0
2017-Sep-04 23:31N 37°46' W 009°51'1019.1
2017-Sep-04 23:01N 37°55' W 009°54'1019.1
2017-Sep-04 22:31N 38°05' W 009°56'1019.1
2017-Sep-04 22:01N 38°14' W 009°59'1019.4
2017-Sep-04 21:31N 38°24' W 010°01'1019.0
2017-Sep-04 21:01N 38°33' W 010°04'1019.1
2017-Sep-04 20:31N 38°42' W 010°06'1019.1
2017-Sep-04 20:01N 38°52' W 010°06'1019.5
2017-Sep-04 19:31N 39°02' W 010°06'1019.1
2017-Sep-04 19:00N 39°11' W 010°06'918.7
2017-Sep-04 18:30N 39°20' W 010°07'918.9
2017-Sep-04 18:00N 39°30' W 010°08'194.6
2017-Sep-04 18:00N 39°30' W 010°06'919.5 330 / 71021.5 5.4 23.020.120.0
2017-Sep-04 17:30N 39°39' W 010°08'1019.0
2017-Sep-04 17:00N 39°49' W 010°09'1019.1
2017-Sep-04 16:30N 39°58' W 010°09'1418.8
2017-Sep-04 15:46N 40°12' W 010°09'819.0
2017-Sep-04 15:22N 40°20' W 010°09'17218.4
2017-Sep-04 06:00N 43°12' W 010°06'17028.3 270 / 101016.6 5.4 18.016.4
2017-Sep-04 00:00N 45°54' W 008°54'58 9.7 230 / 191012.227.0 19.017.520.0
2017-Sep-03 18:00N 46°24' W 007°42'24816.2 270 / 231008.5 2.2 19.017.520.0
2017-Sep-03 02:42N 49°39' W 003°52'316.4
2017-Sep-03 02:30N 49°40' W 003°48'1016.9
2017-Sep-03 01:56N 49°45' W 003°35'717.3
2017-Sep-03 01:30N 49°48' W 003°24'917.8
2017-Sep-03 01:00N 49°53' W 003°13'918.3
2017-Sep-03 00:30N 49°59' W 003°02'1019.3
2017-Sep-03 00:00N 50°01' W 002°47'1220.0
2017-Sep-02 23:25N 50°04' W 002°29'920.4
2017-Sep-02 22:59N 50°06' W 002°16'1020.7
2017-Sep-02 22:30N 50°07' W 002°00'1020.1
2017-Sep-02 22:00N 50°10' W 001°45'1019.8
2017-Sep-02 21:30N 50°12' W 001°30'1019.2
2017-Sep-02 21:00N 50°14' W 001°16'918.7
2017-Sep-02 20:30N 50°17' W 001°02'918.0
2017-Sep-02 20:00N 50°20' W 000°48'917.7
2017-Sep-02 19:30N 50°22' W 000°35'917.1
2017-Sep-02 19:00N 50°25' W 000°22'917.4
2017-Sep-02 18:30N 50°27' W 000°09'917.3
2017-Sep-02 18:00N 50°30' E 000°04'917.3
2017-Sep-02 17:30N 50°32' E 000°17'917.7
2017-Sep-02 17:00N 50°36' E 000°30'918.1
2017-Sep-02 16:30N 50°40' E 000°43'919.0
2017-Sep-02 16:00N 50°45' E 000°54'1019.5
2017-Sep-02 15:30N 50°51' E 001°06'1019.6
2017-Sep-02 15:00N 50°58' E 001°18'1019.1
2017-Sep-02 14:30N 51°04' E 001°30'1019.4
2017-Sep-02 14:00N 51°12' E 001°39'1019.2
2017-Sep-02 13:30N 51°21' E 001°44'918.1
2017-Sep-02 13:00N 51°30' E 001°46'917.5
2017-Sep-02 12:30N 51°39' E 001°45'815.8
2017-Sep-02 12:00N 51°47' E 001°44'612.6
2017-Sep-02 11:30N 51°52' E 001°37'4 8.4
2017-Sep-02 11:00N 51°48' E 001°33'713.5
2017-Sep-02 10:30N 51°42' E 001°28'817.0
2017-Sep-02 10:00N 51°36' E 001°18'815.7
2017-Sep-02 09:30N 51°32' E 001°08'714.4
2017-Sep-02 09:00N 51°29' E 000°57'713.9
2017-Sep-02 08:30N 51°29' E 000°46'  
Track history (hours):
 
Tides and Currents Weather Stations Pressure Air Temp Water Temp Dewpoint Dewpoint Depression Visibility Wind Speed Wind Dir Waves Ship Positions

Bow Lima

Last reported at 2017-Sep-12 07:41 UTC. Time now 2017-Sep-24 17:30 UTC.
Position N 30°33' E 032°19'.
Warning: this ship's position is 12 days out of date.

Length 144 m; draft 10 m.

Type: Ship (hazmat cat A). MMSI: 353610000.

Date/timePositionNaut miles runAvg speedWind from/ knotsBaromVisibWave heightAir tempDewpointWater temp
2017-Sep-12 07:41N 30°33' E 032°19'1 8.2
2017-Sep-12 07:30N 30°34' E 032°18'3 7.0
2017-Sep-12 07:00N 30°38' E 032°20'5 8.5
2017-Sep-12 06:27N 30°42' E 032°21'4 8.8
2017-Sep-12 05:58N 30°46' E 032°19'4 8.8
2017-Sep-12 05:30N 30°50' E 032°19'4 8.5
2017-Sep-12 05:00N 30°55' E 032°19'4 8.5
2017-Sep-12 04:30N 30°59' E 032°19'5 9.1
2017-Sep-12 04:00N 31°03' E 032°19'5 9.0
2017-Sep-12 03:31N 31°08' E 032°19'4 8.9
2017-Sep-12 03:00N 31°12' E 032°20'4 8.4
2017-Sep-12 02:30N 31°16' E 032°21'510.9
2017-Sep-12 02:00N 31°21' E 032°23'4 7.2
2017-Sep-12 01:30N 31°25' E 032°24'3 6.5
2017-Sep-12 01:00N 31°28' E 032°23'4 7.1
2017-Sep-12 00:30N 31°28' E 032°19'0 0.2
2017-Sep-11 23:58N 31°28' E 032°19'0 0.2
2017-Sep-11 23:28N 31°28' E 032°19'0 0.0
2017-Sep-11 21:37N 31°28' E 032°19'0 0.0
2017-Sep-11 21:28N 31°28' E 032°19'0 0.0
2017-Sep-11 20:49N 31°28' E 032°19'0 0.0
2017-Sep-11 20:28N 31°28' E 032°19'0 0.0
2017-Sep-11 19:43N 31°28' E 032°19'0 0.0
2017-Sep-11 19:25N 31°28' E 032°19'0 0.0
2017-Sep-11 18:55N 31°28' E 032°19'0 0.0
2017-Sep-11 18:10N 31°28' E 032°19'0 0.2
2017-Sep-11 17:59N 31°28' E 032°19'1 1.7
2017-Sep-11 17:24N 31°28' E 032°17'610.2
2017-Sep-11 16:50N 31°32' E 032°12'514.1
2017-Sep-11 16:30N 31°35' E 032°08'814.1
2017-Sep-11 15:55N 31°41' E 032°01'713.8
2017-Sep-11 15:23N 31°46' E 031°55'513.9
2017-Sep-11 15:00N 31°49' E 031°50'714.3
2017-Sep-11 14:30N 31°53' E 031°43'714.5
2017-Sep-11 14:00N 31°58' E 031°37'714.5
2017-Sep-11 13:30N 32°03' E 031°31'714.0
2017-Sep-11 13:00N 32°08' E 031°24'714.0
2017-Sep-11 12:30N 32°12' E 031°18'714.0
2017-Sep-11 12:01N 32°17' E 031°12'714.1
2017-Sep-11 11:30N 32°21' E 031°05'714.1
2017-Sep-11 11:00N 32°25' E 030°59'714.3
2017-Sep-11 10:31N 32°30' E 030°52'714.6
2017-Sep-11 10:00N 32°34' E 030°45'714.8
2017-Sep-11 09:30N 32°39' E 030°38'714.8
2017-Sep-11 09:00N 32°44' E 030°32'714.7
2017-Sep-11 08:30N 32°48' E 030°25'714.8
2017-Sep-11 08:00N 32°53' E 030°18'1015.3
2017-Sep-11 07:23N 32°59' E 030°09'615.4
2017-Sep-11 07:00N 33°02' E 030°04'816.0
2017-Sep-11 06:30N 33°07' E 029°56'917.2
2017-Sep-11 06:01N 33°13' E 029°48'917.6
2017-Sep-11 05:30N 33°19' E 029°40'1117.7
2017-Sep-11 04:53N 33°26' E 029°30'717.6
2017-Sep-11 04:30N 33°30' E 029°24'917.4
2017-Sep-11 04:00N 33°36' E 029°16'9417.5
2017-Sep-10 22:37N 34°35' E 027°47'217.1
2017-Sep-10 22:29N 34°36' E 027°45'4216.8
2017-Sep-10 20:00N 35°02' E 027°05'11617.7
2017-Sep-10 13:27N 36°05' E 025°06'2018.1
2017-Sep-10 12:21N 36°16' E 024°46'617.9
2017-Sep-10 12:00N 36°19' E 024°39'1218.0
2017-Sep-10 11:19N 36°26' E 024°26'5317.5
2017-Sep-10 08:18N 37°13' E 023°55'1017.7
2017-Sep-10 07:44N 37°22' E 023°52'517.7
2017-Sep-10 07:26N 37°27' E 023°49'817.8
2017-Sep-10 07:00N 37°34' E 023°45'917.9
2017-Sep-10 06:30N 37°42' E 023°41'816.8
2017-Sep-10 06:01N 37°50' E 023°36'713.1
2017-Sep-10 05:31N 37°57' E 023°36'1 2.7
2017-Sep-10 04:59N 37°57' E 023°35'0 0.1
2017-Sep-10 04:29N 37°57' E 023°35'0 0.0
2017-Sep-10 03:59N 37°57' E 023°35'0 0.0
2017-Sep-10 03:29N 37°57' E 023°35'0 0.0
2017-Sep-10 02:59N 37°57' E 023°35'0 0.0
2017-Sep-10 02:29N 37°57' E 023°35'0 0.0
2017-Sep-10 01:59N 37°57' E 023°35'0 0.1
2017-Sep-10 01:29N 37°57' E 023°35'0 0.1
2017-Sep-10 00:59N 37°57' E 023°35'0 0.0
2017-Sep-10 00:29N 37°57' E 023°35'0 0.0
2017-Sep-09 23:59N 37°57' E 023°35'0 0.0
2017-Sep-09 23:29N 37°57' E 023°35'0 0.0
2017-Sep-09 22:59N 37°57' E 023°35'0 0.0
2017-Sep-09 22:29N 37°57' E 023°35'0 0.0
2017-Sep-09 21:59N 37°57' E 023°35'0 0.0
2017-Sep-09 21:29N 37°57' E 023°35'0 0.0
2017-Sep-09 20:59N 37°57' E 023°35'0 0.0
2017-Sep-09 20:29N 37°57' E 023°35'0 0.0
2017-Sep-09 19:56N 37°57' E 023°35'0 0.0
2017-Sep-09 19:29N 37°57' E 023°35'0 0.0
2017-Sep-09 18:59N 37°57' E 023°35'0 0.0
2017-Sep-09 18:29N 37°57' E 023°35'0 0.0
2017-Sep-09 17:59N 37°57' E 023°35'0 0.0
2017-Sep-09 17:29N 37°57' E 023°35'0 0.0
2017-Sep-09 16:59N 37°57' E 023°35'0 0.0
2017-Sep-09 16:29N 37°57' E 023°35'0 0.0
2017-Sep-09 15:59N 37°57' E 023°35'0 0.0
2017-Sep-09 15:29N 37°57' E 023°35'0 0.0
2017-Sep-09 14:59N 37°57' E 023°35'0 0.0
2017-Sep-09 14:29N 37°57' E 023°35'0 0.0
2017-Sep-09 13:59N 37°57' E 023°35'0 0.0
2017-Sep-09 13:29N 37°57' E 023°35'0 0.0
2017-Sep-09 13:00N 37°57' E 023°35'1 2.6
2017-Sep-09 12:30N 37°56' E 023°35'2 3.0
2017-Sep-09 12:00N 37°55' E 023°34'0 0.5
2017-Sep-09 11:30N 37°55' E 023°34'1 1.0
2017-Sep-09 11:00N 37°54' E 023°35'1 2.5
2017-Sep-09 10:30N 37°53' E 023°36'1 2.6
2017-Sep-09 10:00N 37°53' E 023°37'2 4.4
2017-Sep-09 09:30N 37°51' E 023°39'3 5.7
2017-Sep-09 09:00N 37°48' E 023°41'4 8.8
2017-Sep-09 08:30N 37°44' E 023°43'4 8.7
2017-Sep-09 08:00N 37°40' E 023°45'4 8.7
2017-Sep-09 07:30N 37°36' E 023°48'612.6
2017-Sep-09 07:00N 37°30' E 023°49'612.9
2017-Sep-09 06:30N 37°24' E 023°49'612.7
2017-Sep-09 06:00N 37°17' E 023°48'612.9
2017-Sep-09 05:30N 37°11' E 023°48'713.2
2017-Sep-09 04:58N 37°04' E 023°48'714.3
2017-Sep-09 04:30N 36°57' E 023°48'714.1
2017-Sep-09 04:00N 36°51' E 023°45'1014.2
2017-Sep-09 03:18N 36°42' E 023°39'514.1
2017-Sep-09 02:59N 36°37' E 023°37'714.0
2017-Sep-09 02:30N 36°32' E 023°33'714.2
2017-Sep-09 02:00N 36°25' E 023°30'39614.9
2017-Sep-07 23:29N 36°20' E 015°18'817.3
2017-Sep-07 23:00N 36°21' E 015°08'3188.2
2017-Sep-07 23:00N 36°18' E 015°06'816.4 230 / 101015.227.0 24.021.126.0
2017-Sep-07 22:30N 36°21' E 014°57'917.4
2017-Sep-07 22:00N 36°21' E 014°46'917.2
2017-Sep-07 21:30N 36°22' E 014°35'816.7
2017-Sep-07 21:00N 36°24' E 014°25'917.2
2017-Sep-07 20:30N 36°29' E 014°16'917.3
2017-Sep-07 20:00N 36°31' E 014°06'816.8
2017-Sep-07 19:30N 36°33' E 013°55'816.9
2017-Sep-07 19:00N 36°34' E 013°45'917.3
2017-Sep-07 18:30N 36°36' E 013°35'917.3
2017-Sep-07 18:00N 36°38' E 013°24'2147.2
2017-Sep-07 18:00N 36°36' E 013°24'919.1 270 / 81014.2 5.4 25.020.727.0
2017-Sep-07 17:30N 36°41' E 013°14'816.8
2017-Sep-07 17:00N 36°44' E 013°04'816.7
2017-Sep-07 16:30N 36°47' E 012°54'816.6
2017-Sep-07 16:00N 36°49' E 012°45'917.2
2017-Sep-07 15:30N 36°52' E 012°34'16717.6
2017-Sep-07 06:00N 37°36' E 009°12'10918.2 360 / 131016.527.0 23.021.627.0
2017-Sep-07 00:00N 37°36' E 006°54'10517.4 360 / 131019.727.0 24.021.128.0
2017-Sep-06 18:00N 37°36' E 004°42'2517.5 040 / 121018.8 5.4 26.020.227.0
2017-Sep-06 16:35N 37°35' E 004°11'117.4
2017-Sep-06 16:31N 37°36' E 004°09'917.4
2017-Sep-06 16:00N 37°36' E 003°58'817.4
2017-Sep-06 15:30N 37°35' E 003°47'1117.4
2017-Sep-06 14:54N 37°32' E 003°35'717.6
2017-Sep-06 14:30N 37°30' E 003°26'1317.8
2017-Sep-06 13:46N 37°26' E 003°10'517.8
2017-Sep-06 13:30N 37°25' E 003°05'917.9
2017-Sep-06 13:00N 37°23' E 002°54'918.2
2017-Sep-06 12:30N 37°20' E 002°43'918.3
2017-Sep-06 12:00N 37°17' E 002°32'918.2
2017-Sep-06 11:30N 37°16' E 002°21'917.7
2017-Sep-06 11:00N 37°13' E 002°10'917.4
2017-Sep-06 10:30N 37°11' E 001°59'817.2
2017-Sep-06 10:00N 37°09' E 001°49'917.0
2017-Sep-06 09:30N 37°07' E 001°39'817.1
2017-Sep-06 09:00N 37°05' E 001°28'817.0
2017-Sep-06 08:30N 37°03' E 001°18'816.9
2017-Sep-06 08:00N 37°00' E 001°08'917.4
2017-Sep-06 07:30N 36°58' E 000°58'917.8
2017-Sep-06 07:00N 36°55' E 000°47'917.9
2017-Sep-06 06:30N 36°52' E 000°36'917.5
2017-Sep-06 06:00N 36°49' E 000°26'2228.7
2017-Sep-06 06:00N 36°48' E 000°24'714.2 030 / 181020.6 5.4 23.021.626.0
2017-Sep-06 05:30N 36°46' E 000°16'917.8
2017-Sep-06 05:00N 36°43' E 000°05'917.7
2017-Sep-06 04:30N 36°41' W 000°05'917.3
2017-Sep-06 04:00N 36°38' W 000°16'917.4
2017-Sep-06 03:30N 36°37' W 000°26'917.3
2017-Sep-06 03:00N 36°34' W 000°37'917.4
2017-Sep-06 02:30N 36°32' W 000°47'917.8
2017-Sep-06 02:00N 36°30' W 000°58'918.3
2017-Sep-06 01:30N 36°28' W 001°09'918.3
2017-Sep-06 01:00N 36°25' W 001°20'918.2
2017-Sep-06 00:30N 36°22' W 001°30'918.2
2017-Sep-06 00:00N 36°18' W 001°41'4533.1
2017-Sep-06 00:00N 36°18' W 001°36'1326.5 030 / 161021.227.0 24.022.626.0
2017-Sep-05 23:30N 36°16' W 001°52'918.4
2017-Sep-05 23:00N 36°14' W 002°03'918.4
2017-Sep-05 22:30N 36°11' W 002°14'918.1
2017-Sep-05 22:00N 36°11' W 002°25'918.1
2017-Sep-05 21:30N 36°10' W 002°36'917.7
2017-Sep-05 21:00N 36°08' W 002°47'4916.4
2017-Sep-05 18:00N 36°06' W 003°48'5820.7 040 / 151020.5 5.4 25.023.623.0
2017-Sep-05 15:10N 36°00' W 004°60'419.3
2017-Sep-05 14:59N 36°00' W 005°04'918.4
2017-Sep-05 14:30N 35°59' W 005°15'1019.2
2017-Sep-05 14:00N 35°58' W 005°27'917.9
2017-Sep-05 13:30N 35°55' W 005°37'1117.5
2017-Sep-05 12:54N 35°55' W 005°50'1617.9
2017-Sep-05 12:01N 35°54' W 006°10'018.8
2017-Sep-05 12:00N 35°54' W 006°10'4918.8
2017-Sep-05 09:24N 36°04' W 007°09'918.1
2017-Sep-05 08:55N 36°07' W 007°19'717.8
2017-Sep-05 08:30N 36°08' W 007°28'917.8
2017-Sep-05 08:00N 36°10' W 007°39'917.9
2017-Sep-05 07:29N 36°12' W 007°50'1118.4
2017-Sep-05 06:53N 36°16' W 008°03'718.3
2017-Sep-05 06:29N 36°18' W 008°12'918.3
2017-Sep-05 05:59N 36°21' W 008°23'918.5
2017-Sep-05 05:28N 36°24' W 008°34'918.9
2017-Sep-05 04:59N 36°26' W 008°45'919.0
2017-Sep-05 04:30N 36°29' W 008°56'919.2
2017-Sep-05 04:01N 36°31' W 009°07'919.0
2017-Sep-05 03:31N 36°34' W 009°19'1019.7
2017-Sep-05 03:01N 36°42' W 009°26'1019.3
2017-Sep-05 02:30N 36°50' W 009°33'1019.5
2017-Sep-05 02:01N 36°59' W 009°36'1019.2
2017-Sep-05 01:31N 37°08' W 009°39'1019.5
2017-Sep-05 01:01N 37°18' W 009°42'1019.7
2017-Sep-05 00:30N 37°28' W 009°45'1019.5
2017-Sep-05 00:01N 37°37' W 009°48'155.3
2017-Sep-05 00:00N 37°36' W 009°48'1021.5 360 / 121022.227.0 19.019.020.0
2017-Sep-04 23:31N 37°46' W 009°51'1019.1
2017-Sep-04 23:01N 37°55' W 009°54'1019.1
2017-Sep-04 22:31N 38°05' W 009°56'1019.1
2017-Sep-04 22:01N 38°14' W 009°59'1019.4
2017-Sep-04 21:31N 38°24' W 010°01'1019.0
2017-Sep-04 21:01N 38°33' W 010°04'1019.1
2017-Sep-04 20:31N 38°42' W 010°06'1019.1
2017-Sep-04 20:01N 38°52' W 010°06'1019.5
2017-Sep-04 19:31N 39°02' W 010°06'1019.1
2017-Sep-04 19:00N 39°11' W 010°06'918.7
2017-Sep-04 18:30N 39°20' W 010°07'918.9
2017-Sep-04 18:00N 39°30' W 010°08'194.6
2017-Sep-04 18:00N 39°30' W 010°06'919.5 330 / 71021.5 5.4 23.020.120.0
2017-Sep-04 17:30N 39°39' W 010°08'1019.0
2017-Sep-04 17:00N 39°49' W 010°09'1019.1
2017-Sep-04 16:30N 39°58' W 010°09'1418.8
2017-Sep-04 15:46N 40°12' W 010°09'819.0
2017-Sep-04 15:22N 40°20' W 010°09'17218.4
2017-Sep-04 06:00N 43°12' W 010°06'17028.3 270 / 101016.6 5.4 18.016.4
2017-Sep-04 00:00N 45°54' W 008°54'58 9.7 230 / 191012.227.0 19.017.520.0
2017-Sep-03 18:00N 46°24' W 007°42'24816.2 270 / 231008.5 2.2 19.017.520.0
2017-Sep-03 02:42N 49°39' W 003°52'316.4
2017-Sep-03 02:30N 49°40' W 003°48'1016.9
2017-Sep-03 01:56N 49°45' W 003°35'717.3
2017-Sep-03 01:30N 49°48' W 003°24'917.8
2017-Sep-03 01:00N 49°53' W 003°13'918.3
2017-Sep-03 00:30N 49°59' W 003°02'1019.3
2017-Sep-03 00:00N 50°01' W 002°47'1220.0
2017-Sep-02 23:25N 50°04' W 002°29'920.4
2017-Sep-02 22:59N 50°06' W 002°16'1020.7
2017-Sep-02 22:30N 50°07' W 002°00'1020.1
2017-Sep-02 22:00N 50°10' W 001°45'1019.8
2017-Sep-02 21:30N 50°12' W 001°30'1019.2
2017-Sep-02 21:00N 50°14' W 001°16'918.7
2017-Sep-02 20:30N 50°17' W 001°02'918.0
2017-Sep-02 20:00N 50°20' W 000°48'917.7
2017-Sep-02 19:30N 50°22' W 000°35'917.1
2017-Sep-02 19:00N 50°25' W 000°22'917.4
2017-Sep-02 18:30N 50°27' W 000°09'917.3
2017-Sep-02 18:00N 50°30' E 000°04'917.3
2017-Sep-02 17:30N 50°32' E 000°17'917.7
2017-Sep-02 17:00N 50°36' E 000°30'918.1
2017-Sep-02 16:30N 50°40' E 000°43'919.0
2017-Sep-02 16:00N 50°45' E 000°54'1019.5
2017-Sep-02 15:30N 50°51' E 001°06'1019.6
2017-Sep-02 15:00N 50°58' E 001°18'1019.1
2017-Sep-02 14:30N 51°04' E 001°30'1019.4
2017-Sep-02 14:00N 51°12' E 001°39'1019.2
2017-Sep-02 13:30N 51°21' E 001°44'918.1
2017-Sep-02 13:00N 51°30' E 001°46'917.5
2017-Sep-02 12:30N 51°39' E 001°45'815.8
2017-Sep-02 12:00N 51°47' E 001°44'612.6
2017-Sep-02 11:30N 51°52' E 001°37'4 8.4
2017-Sep-02 11:00N 51°48' E 001°33'713.5
2017-Sep-02 10:30N 51°42' E 001°28'817.0
2017-Sep-02 10:00N 51°36' E 001°18'815.7
2017-Sep-02 09:30N 51°32' E 001°08'714.4
2017-Sep-02 09:00N 51°29' E 000°57'713.9
2017-Sep-02 08:30N 51°29' E 000°46'  

Dump ship's entire track history